sensor_id;sensor_type;location;lat;lon;timestamp;pressure;altitude;pressure_sealevel;temperature;humidity
54144;BME280;40050;47.324;18.792;2023-08-08T00:01:47;1003.80;;;17.20;59.92
54144;BME280;40050;47.324;18.792;2023-08-08T00:03:48;1003.85;;;17.20;59.84
54144;BME280;40050;47.324;18.792;2023-08-08T00:05:48;1003.83;;;17.18;59.89
54144;BME280;40050;47.324;18.792;2023-08-08T00:07:49;1003.85;;;17.18;59.71
54144;BME280;40050;47.324;18.792;2023-08-08T00:09:50;1003.83;;;17.14;60.00
54144;BME280;40050;47.324;18.792;2023-08-08T00:11:51;1003.83;;;17.13;60.23
54144;BME280;40050;47.324;18.792;2023-08-08T00:13:52;1003.81;;;17.15;60.07
54144;BME280;40050;47.324;18.792;2023-08-08T00:15:53;1003.84;;;17.17;59.88
54144;BME280;40050;47.324;18.792;2023-08-08T00:17:54;1003.87;;;17.16;59.93
54144;BME280;40050;47.324;18.792;2023-08-08T00:19:55;1003.91;;;17.17;59.78
54144;BME280;40050;47.324;18.792;2023-08-08T00:21:56;1003.88;;;17.14;60.00
54144;BME280;40050;47.324;18.792;2023-08-08T00:23:56;1003.96;;;17.15;60.32
54144;BME280;40050;47.324;18.792;2023-08-08T00:25:57;1003.93;;;17.13;60.23
54144;BME280;40050;47.324;18.792;2023-08-08T00:27:58;1003.93;;;17.13;60.20
54144;BME280;40050;47.324;18.792;2023-08-08T00:30:00;1003.96;;;17.14;60.40
54144;BME280;40050;47.324;18.792;2023-08-08T00:32:01;1003.96;;;17.12;60.35
54144;BME280;40050;47.324;18.792;2023-08-08T00:34:02;1003.97;;;17.13;60.41
54144;BME280;40050;47.324;18.792;2023-08-08T00:36:03;1003.94;;;17.11;60.37
54144;BME280;40050;47.324;18.792;2023-08-08T00:38:04;1003.97;;;17.16;60.47
54144;BME280;40050;47.324;18.792;2023-08-08T00:40:05;1003.95;;;17.18;60.59
54144;BME280;40050;47.324;18.792;2023-08-08T00:42:06;1003.83;;;17.16;60.67
54144;BME280;40050;47.324;18.792;2023-08-08T00:44:07;1003.97;;;17.19;60.63
54144;BME280;40050;47.324;18.792;2023-08-08T00:46:08;1003.94;;;17.20;60.62
54144;BME280;40050;47.324;18.792;2023-08-08T00:48:09;1003.94;;;17.17;60.85
54144;BME280;40050;47.324;18.792;2023-08-08T00:50:10;1003.99;;;17.16;61.03
54144;BME280;40050;47.324;18.792;2023-08-08T00:52:11;1003.92;;;17.14;61.00
54144;BME280;40050;47.324;18.792;2023-08-08T00:54:12;1003.95;;;17.11;61.16
54144;BME280;40050;47.324;18.792;2023-08-08T00:56:14;1003.97;;;17.16;61.17
54144;BME280;40050;47.324;18.792;2023-08-08T00:58:15;1004.00;;;17.14;61.10
54144;BME280;40050;47.324;18.792;2023-08-08T01:00:16;1004.04;;;17.19;61.04
54144;BME280;40050;47.324;18.792;2023-08-08T01:02:17;1004.09;;;17.21;61.14
54144;BME280;40050;47.324;18.792;2023-08-08T01:04:18;1004.08;;;17.21;61.25
54144;BME280;40050;47.324;18.792;2023-08-08T01:06:33;1004.08;;;17.22;61.00
54144;BME280;40050;47.324;18.792;2023-08-08T01:08:45;1004.08;;;17.20;60.89
54144;BME280;40050;47.324;18.792;2023-08-08T01:10:48;1004.16;;;17.19;61.05
54144;BME280;40050;47.324;18.792;2023-08-08T01:12:50;1004.15;;;17.22;61.06
54144;BME280;40050;47.324;18.792;2023-08-08T01:14:52;1004.18;;;17.19;61.09
54144;BME280;40050;47.324;18.792;2023-08-08T01:16:54;1004.25;;;17.16;61.25
54144;BME280;40050;47.324;18.792;2023-08-08T01:18:56;1004.25;;;17.21;61.30
54144;BME280;40050;47.324;18.792;2023-08-08T01:20:57;1004.23;;;17.22;61.08
54144;BME280;40050;47.324;18.792;2023-08-08T01:23:03;1004.23;;;17.19;60.97
54144;BME280;40050;47.324;18.792;2023-08-08T01:25:09;1004.24;;;17.23;61.15
54144;BME280;40050;47.324;18.792;2023-08-08T01:27:11;1004.23;;;17.21;61.09
54144;BME280;40050;47.324;18.792;2023-08-08T01:29:12;1004.29;;;17.21;61.19
54144;BME280;40050;47.324;18.792;2023-08-08T01:31:12;1004.26;;;17.20;61.03
54144;BME280;40050;47.324;18.792;2023-08-08T01:33:13;1004.29;;;17.20;61.11
54144;BME280;40050;47.324;18.792;2023-08-08T01:35:14;1004.30;;;17.25;60.92
54144;BME280;40050;47.324;18.792;2023-08-08T01:37:26;1004.31;;;17.22;61.04
54144;BME280;40050;47.324;18.792;2023-08-08T01:39:29;1004.28;;;17.19;61.00
54144;BME280;40050;47.324;18.792;2023-08-08T01:41:33;1004.26;;;17.20;61.01
54144;BME280;40050;47.324;18.792;2023-08-08T01:43:35;1004.23;;;17.19;60.98
54144;BME280;40050;47.324;18.792;2023-08-08T01:45:37;1004.30;;;17.23;60.81
54144;BME280;40050;47.324;18.792;2023-08-08T01:47:39;1004.32;;;17.20;60.93
54144;BME280;40050;47.324;18.792;2023-08-08T01:49:40;1004.16;;;17.08;61.11
54144;BME280;40050;47.324;18.792;2023-08-08T01:51:41;1004.37;;;17.21;61.08
54144;BME280;40050;47.324;18.792;2023-08-08T01:53:41;1004.34;;;17.16;61.25
54144;BME280;40050;47.324;18.792;2023-08-08T01:55:42;1004.36;;;17.19;61.28
54144;BME280;40050;47.324;18.792;2023-08-08T01:57:43;1004.13;;;17.03;61.24
54144;BME280;40050;47.324;18.792;2023-08-08T01:59:47;1004.31;;;17.13;61.25
54144;BME280;40050;47.324;18.792;2023-08-08T02:01:48;1004.38;;;17.17;61.35
54144;BME280;40050;47.324;18.792;2023-08-08T02:03:49;1004.38;;;17.17;61.26
54144;BME280;40050;47.324;18.792;2023-08-08T02:05:50;1004.41;;;17.17;61.30
54144;BME280;40050;47.324;18.792;2023-08-08T02:07:50;1004.37;;;17.17;61.26
54144;BME280;40050;47.324;18.792;2023-08-08T02:09:51;1004.44;;;17.17;61.33
54144;BME280;40050;47.324;18.792;2023-08-08T02:11:52;1004.50;;;17.16;61.13
54144;BME280;40050;47.324;18.792;2023-08-08T02:13:53;1004.45;;;17.14;61.19
54144;BME280;40050;47.324;18.792;2023-08-08T02:15:54;1004.43;;;17.11;61.14
54144;BME280;40050;47.324;18.792;2023-08-08T02:17:55;1004.44;;;17.11;61.14
54144;BME280;40050;47.324;18.792;2023-08-08T02:19:56;1004.45;;;17.13;60.62
54144;BME280;40050;47.324;18.792;2023-08-08T02:21:57;1004.54;;;17.08;60.73
54144;BME280;40050;47.324;18.792;2023-08-08T02:23:58;1004.56;;;17.05;60.75
54144;BME280;40050;47.324;18.792;2023-08-08T02:25:59;1004.54;;;17.00;60.91
54144;BME280;40050;47.324;18.792;2023-08-08T02:27:59;1004.51;;;16.94;61.05
54144;BME280;40050;47.324;18.792;2023-08-08T02:30:00;1004.52;;;16.93;61.12
54144;BME280;40050;47.324;18.792;2023-08-08T02:32:01;1004.48;;;16.90;61.50
54144;BME280;40050;47.324;18.792;2023-08-08T02:34:02;1004.48;;;16.87;61.39
54144;BME280;40050;47.324;18.792;2023-08-08T02:36:03;1004.55;;;16.87;61.55
54144;BME280;40050;47.324;18.792;2023-08-08T02:38:04;1004.50;;;16.82;61.47
54144;BME280;40050;47.324;18.792;2023-08-08T02:40:05;1004.50;;;16.79;61.55
54144;BME280;40050;47.324;18.792;2023-08-08T02:42:07;1004.21;;;16.58;61.55
54144;BME280;40050;47.324;18.792;2023-08-08T02:44:08;1004.46;;;16.68;61.61
54144;BME280;40050;47.324;18.792;2023-08-08T02:46:09;1004.65;;;16.73;61.88
54144;BME280;40050;47.324;18.792;2023-08-08T02:48:09;1004.66;;;16.72;61.86
54144;BME280;40050;47.324;18.792;2023-08-08T02:50:10;1004.64;;;16.69;61.80
54144;BME280;40050;47.324;18.792;2023-08-08T02:52:11;1004.41;;;16.50;61.90
54144;BME280;40050;47.324;18.792;2023-08-08T02:54:12;1004.63;;;16.68;62.04
54144;BME280;40050;47.324;18.792;2023-08-08T02:56:13;1004.62;;;16.68;62.03
54144;BME280;40050;47.324;18.792;2023-08-08T02:58:14;1004.65;;;16.65;61.89
54144;BME280;40050;47.324;18.792;2023-08-08T03:00:15;1004.62;;;16.66;62.06
54144;BME280;40050;47.324;18.792;2023-08-08T03:02:16;1004.63;;;16.65;61.98
54144;BME280;40050;47.324;18.792;2023-08-08T03:04:17;1004.67;;;16.65;62.04
54144;BME280;40050;47.324;18.792;2023-08-08T03:06:18;1004.57;;;16.55;62.09
54144;BME280;40050;47.324;18.792;2023-08-08T03:08:19;1004.77;;;16.64;61.81
54144;BME280;40050;47.324;18.792;2023-08-08T03:10:20;1004.81;;;16.63;61.88
54144;BME280;40050;47.324;18.792;2023-08-08T03:12:21;1004.79;;;16.62;61.63
54144;BME280;40050;47.324;18.792;2023-08-08T03:14:21;1004.79;;;16.60;61.63
54144;BME280;40050;47.324;18.792;2023-08-08T03:16:22;1004.79;;;16.57;61.59
54144;BME280;40050;47.324;18.792;2023-08-08T03:18:23;1004.81;;;16.53;61.75
54144;BME280;40050;47.324;18.792;2023-08-08T03:20:24;1004.76;;;16.48;61.81
54144;BME280;40050;47.324;18.792;2023-08-08T03:22:25;1004.87;;;16.48;61.90
54144;BME280;40050;47.324;18.792;2023-08-08T03:24:26;1004.88;;;16.47;61.96
54144;BME280;40050;47.324;18.792;2023-08-08T03:26:27;1004.96;;;16.45;62.00
54144;BME280;40050;47.324;18.792;2023-08-08T03:28:28;1004.89;;;16.43;62.13
54144;BME280;40050;47.324;18.792;2023-08-08T03:30:29;1004.95;;;16.44;62.16
54144;BME280;40050;47.324;18.792;2023-08-08T03:32:30;1004.96;;;16.42;62.22
54144;BME280;40050;47.324;18.792;2023-08-08T03:34:30;1004.90;;;16.40;62.34
54144;BME280;40050;47.324;18.792;2023-08-08T03:36:31;1004.86;;;16.38;62.37
54144;BME280;40050;47.324;18.792;2023-08-08T03:38:32;1004.85;;;16.34;62.20
54144;BME280;40050;47.324;18.792;2023-08-08T03:40:33;1004.95;;;16.33;62.34
54144;BME280;40050;47.324;18.792;2023-08-08T03:42:34;1004.92;;;16.32;62.40
54144;BME280;40050;47.324;18.792;2023-08-08T03:44:35;1004.99;;;16.33;62.39
54144;BME280;40050;47.324;18.792;2023-08-08T03:46:36;1004.93;;;16.29;62.48
54144;BME280;40050;47.324;18.792;2023-08-08T03:48:37;1005.01;;;16.29;62.51
54144;BME280;40050;47.324;18.792;2023-08-08T03:50:38;1004.98;;;16.26;62.66
54144;BME280;40050;47.324;18.792;2023-08-08T03:52:39;1005.01;;;16.26;62.47
54144;BME280;40050;47.324;18.792;2023-08-08T03:54:40;1005.07;;;16.27;62.52
54144;BME280;40050;47.324;18.792;2023-08-08T03:56:41;1005.08;;;16.25;62.68
54144;BME280;40050;47.324;18.792;2023-08-08T03:58:42;1004.94;;;16.22;62.59
54144;BME280;40050;47.324;18.792;2023-08-08T04:00:43;1005.00;;;16.24;62.62
54144;BME280;40050;47.324;18.792;2023-08-08T04:02:44;1004.96;;;16.18;62.64
54144;BME280;40050;47.324;18.792;2023-08-08T04:04:44;1004.79;;;16.05;62.62
54144;BME280;40050;47.324;18.792;2023-08-08T04:06:45;1004.89;;;16.10;62.68
54144;BME280;40050;47.324;18.792;2023-08-08T04:08:46;1005.16;;;16.23;62.79
54144;BME280;40050;47.324;18.792;2023-08-08T04:10:47;1005.08;;;16.24;62.74
54144;BME280;40050;47.324;18.792;2023-08-08T04:12:48;1005.10;;;16.23;62.59
54144;BME280;40050;47.324;18.792;2023-08-08T04:14:49;1005.16;;;16.24;62.61
54144;BME280;40050;47.324;18.792;2023-08-08T04:16:50;1005.13;;;16.23;62.73
54144;BME280;40050;47.324;18.792;2023-08-08T04:18:51;1005.18;;;16.26;62.86
54144;BME280;40050;47.324;18.792;2023-08-08T04:20:52;1005.17;;;16.27;62.72
54144;BME280;40050;47.324;18.792;2023-08-08T04:22:52;1005.27;;;16.28;62.90
54144;BME280;40050;47.324;18.792;2023-08-08T04:24:53;1005.22;;;16.29;62.68
54144;BME280;40050;47.324;18.792;2023-08-08T04:26:54;1005.29;;;16.29;62.76
54144;BME280;40050;47.324;18.792;2023-08-08T04:28:55;1005.32;;;16.32;62.51
54144;BME280;40050;47.324;18.792;2023-08-08T04:30:56;1005.21;;;16.32;62.35
54144;BME280;40050;47.324;18.792;2023-08-08T04:32:57;1005.30;;;16.38;62.26
54144;BME280;40050;47.324;18.792;2023-08-08T04:34:58;1005.37;;;16.37;62.40
54144;BME280;40050;47.324;18.792;2023-08-08T04:36:59;1005.35;;;16.39;62.39
54144;BME280;40050;47.324;18.792;2023-08-08T04:39:00;1005.41;;;16.38;62.53
54144;BME280;40050;47.324;18.792;2023-08-08T04:41:01;1005.38;;;16.38;62.44
54144;BME280;40050;47.324;18.792;2023-08-08T04:43:01;1005.34;;;16.38;62.15
54144;BME280;40050;47.324;18.792;2023-08-08T04:45:03;1005.37;;;16.44;62.22
54144;BME280;40050;47.324;18.792;2023-08-08T04:47:04;1005.44;;;16.49;62.23
54144;BME280;40050;47.324;18.792;2023-08-08T04:49:05;1005.38;;;16.49;62.03
54144;BME280;40050;47.324;18.792;2023-08-08T04:51:06;1005.36;;;16.52;62.31
54144;BME280;40050;47.324;18.792;2023-08-08T04:53:07;1005.06;;;16.38;62.03
54144;BME280;40050;47.324;18.792;2023-08-08T04:55:08;1005.32;;;16.57;62.38
54144;BME280;40050;47.324;18.792;2023-08-08T04:57:09;1005.40;;;16.63;62.19
54144;BME280;40050;47.324;18.792;2023-08-08T04:59:10;1005.34;;;16.63;62.16
54144;BME280;40050;47.324;18.792;2023-08-08T05:01:11;1005.35;;;16.64;62.17
54144;BME280;40050;47.324;18.792;2023-08-08T05:03:12;1005.43;;;16.69;61.86
54144;BME280;40050;47.324;18.792;2023-08-08T05:05:13;1005.43;;;16.73;61.85
54144;BME280;40050;47.324;18.792;2023-08-08T05:07:14;1005.29;;;16.71;61.93
54144;BME280;40050;47.324;18.792;2023-08-08T05:09:15;1005.31;;;16.74;61.88
54144;BME280;40050;47.324;18.792;2023-08-08T05:11:16;1005.47;;;16.90;61.76
54144;BME280;40050;47.324;18.792;2023-08-08T05:13:17;1005.46;;;16.93;61.82
54144;BME280;40050;47.324;18.792;2023-08-08T05:15:18;1005.45;;;17.00;61.76
54144;BME280;40050;47.324;18.792;2023-08-08T05:17:19;1005.49;;;17.08;61.49
54144;BME280;40050;47.324;18.792;2023-08-08T05:19:19;1005.50;;;17.15;61.77
54144;BME280;40050;47.324;18.792;2023-08-08T05:21:21;1005.48;;;17.22;61.52
54144;BME280;40050;47.324;18.792;2023-08-08T05:23:22;1005.51;;;17.34;61.47
54144;BME280;40050;47.324;18.792;2023-08-08T05:25:23;1005.55;;;17.42;60.98
54144;BME280;40050;47.324;18.792;2023-08-08T05:27:23;1005.51;;;17.48;61.12
54144;BME280;40050;47.324;18.792;2023-08-08T05:29:24;1005.59;;;17.62;60.77
54144;BME280;40050;47.324;18.792;2023-08-08T05:31:25;1005.60;;;17.71;60.69
54144;BME280;40050;47.324;18.792;2023-08-08T05:33:26;1005.68;;;17.87;60.38
54144;BME280;40050;47.324;18.792;2023-08-08T05:35:27;1005.73;;;18.00;59.95
54144;BME280;40050;47.324;18.792;2023-08-08T05:37:28;1005.72;;;18.11;59.42
54144;BME280;40050;47.324;18.792;2023-08-08T05:39:29;1005.68;;;18.16;58.49
54144;BME280;40050;47.324;18.792;2023-08-08T05:41:30;1005.74;;;18.31;58.58
54144;BME280;40050;47.324;18.792;2023-08-08T05:43:31;1005.70;;;18.41;58.32
54144;BME280;40050;47.324;18.792;2023-08-08T05:45:32;1005.72;;;18.53;58.25
54144;BME280;40050;47.324;18.792;2023-08-08T05:47:33;1005.72;;;18.69;58.22
54144;BME280;40050;47.324;18.792;2023-08-08T05:49:34;1005.67;;;18.81;57.13
54144;BME280;40050;47.324;18.792;2023-08-08T05:51:35;1005.75;;;18.96;56.66
54144;BME280;40050;47.324;18.792;2023-08-08T05:53:36;1005.71;;;19.09;56.52
54144;BME280;40050;47.324;18.792;2023-08-08T05:55:37;1005.70;;;19.22;56.09
54144;BME280;40050;47.324;18.792;2023-08-08T05:57:38;1005.69;;;19.31;55.04
54144;BME280;40050;47.324;18.792;2023-08-08T05:59:39;1005.73;;;19.40;55.61
54144;BME280;40050;47.324;18.792;2023-08-08T06:01:39;1005.71;;;19.52;54.96
54144;BME280;40050;47.324;18.792;2023-08-08T06:03:40;1005.72;;;19.62;54.26
54144;BME280;40050;47.324;18.792;2023-08-08T06:05:42;1005.71;;;19.72;54.46
54144;BME280;40050;47.324;18.792;2023-08-08T06:07:43;1005.72;;;19.82;54.06
54144;BME280;40050;47.324;18.792;2023-08-08T06:09:44;1005.77;;;19.91;54.15
54144;BME280;40050;47.324;18.792;2023-08-08T06:11:45;1005.68;;;20.01;53.28
54144;BME280;40050;47.324;18.792;2023-08-08T06:13:46;1005.56;;;20.05;53.59
54144;BME280;40050;47.324;18.792;2023-08-08T06:15:47;1005.74;;;20.27;53.38
54144;BME280;40050;47.324;18.792;2023-08-08T06:17:48;1005.72;;;20.38;52.80
54144;BME280;40050;47.324;18.792;2023-08-08T06:19:49;1005.69;;;20.51;52.07
54144;BME280;40050;47.324;18.792;2023-08-08T06:21:50;1005.70;;;20.58;51.38
54144;BME280;40050;47.324;18.792;2023-08-08T06:23:51;1005.69;;;20.68;52.27
54144;BME280;40050;47.324;18.792;2023-08-08T06:25:52;1005.71;;;20.80;51.77
54144;BME280;40050;47.324;18.792;2023-08-08T06:27:53;1005.79;;;20.90;51.78
54144;BME280;40050;47.324;18.792;2023-08-08T06:29:54;1005.84;;;21.01;51.66
54144;BME280;40050;47.324;18.792;2023-08-08T06:31:55;1005.91;;;21.15;50.63
54144;BME280;40050;47.324;18.792;2023-08-08T06:33:55;1005.93;;;21.24;50.60
54144;BME280;40050;47.324;18.792;2023-08-08T06:35:56;1005.95;;;21.27;50.49
54144;BME280;40050;47.324;18.792;2023-08-08T06:37:57;1006.00;;;21.31;50.32
54144;BME280;40050;47.324;18.792;2023-08-08T06:39:58;1005.75;;;21.20;50.31
54144;BME280;40050;47.324;18.792;2023-08-08T06:41:59;1005.97;;;21.36;50.07
54144;BME280;40050;47.324;18.792;2023-08-08T06:44:00;1006.00;;;21.46;50.04
54144;BME280;40050;47.324;18.792;2023-08-08T06:46:01;1006.07;;;21.56;50.13
54144;BME280;40050;47.324;18.792;2023-08-08T06:48:02;1006.05;;;21.71;49.94
54144;BME280;40050;47.324;18.792;2023-08-08T06:50:03;1006.10;;;21.77;49.11
54144;BME280;40050;47.324;18.792;2023-08-08T06:52:04;1006.11;;;21.89;49.62
54144;BME280;40050;47.324;18.792;2023-08-08T06:54:05;1006.12;;;21.97;49.77
54144;BME280;40050;47.324;18.792;2023-08-08T06:56:06;1005.97;;;22.04;49.18
54144;BME280;40050;47.324;18.792;2023-08-08T06:58:07;1006.11;;;22.21;48.83
54144;BME280;40050;47.324;18.792;2023-08-08T07:00:08;1006.04;;;22.26;48.78
54144;BME280;40050;47.324;18.792;2023-08-08T07:02:09;1006.16;;;22.46;48.53
54144;BME280;40050;47.324;18.792;2023-08-08T07:04:10;1006.14;;;22.64;48.80
54144;BME280;40050;47.324;18.792;2023-08-08T07:06:11;1006.09;;;22.79;48.40
54144;BME280;40050;47.324;18.792;2023-08-08T07:08:12;1006.09;;;22.89;47.38
54144;BME280;40050;47.324;18.792;2023-08-08T07:10:13;1006.12;;;22.96;46.84
54144;BME280;40050;47.324;18.792;2023-08-08T07:12:14;1006.19;;;23.00;45.85
54144;BME280;40050;47.324;18.792;2023-08-08T07:14:15;1006.18;;;23.00;46.17
54144;BME280;40050;47.324;18.792;2023-08-08T07:16:16;1006.23;;;23.03;46.17
54144;BME280;40050;47.324;18.792;2023-08-08T07:18:17;1006.21;;;23.02;46.12
54144;BME280;40050;47.324;18.792;2023-08-08T07:20:18;1006.09;;;22.97;45.93
54144;BME280;40050;47.324;18.792;2023-08-08T07:22:18;1006.22;;;23.12;45.65
54144;BME280;40050;47.324;18.792;2023-08-08T07:24:19;1006.26;;;23.19;45.87
54144;BME280;40050;47.324;18.792;2023-08-08T07:26:20;1006.24;;;23.28;46.35
54144;BME280;40050;47.324;18.792;2023-08-08T07:28:21;1006.20;;;23.41;45.96
54144;BME280;40050;47.324;18.792;2023-08-08T07:30:22;1006.25;;;23.53;45.61
54144;BME280;40050;47.324;18.792;2023-08-08T07:32:23;1006.25;;;23.62;45.22
54144;BME280;40050;47.324;18.792;2023-08-08T07:34:24;1006.21;;;23.74;45.37
54144;BME280;40050;47.324;18.792;2023-08-08T07:36:25;1006.21;;;23.86;45.38
54144;BME280;40050;47.324;18.792;2023-08-08T07:38:26;1006.28;;;23.96;45.06
54144;BME280;40050;47.324;18.792;2023-08-08T07:40:27;1006.23;;;24.01;44.75
54144;BME280;40050;47.324;18.792;2023-08-08T07:42:28;1006.29;;;24.08;44.45
54144;BME280;40050;47.324;18.792;2023-08-08T07:44:29;1006.24;;;24.09;43.94
54144;BME280;40050;47.324;18.792;2023-08-08T07:46:30;1006.23;;;24.09;43.84
54144;BME280;40050;47.324;18.792;2023-08-08T07:48:31;1006.24;;;24.13;43.14
54144;BME280;40050;47.324;18.792;2023-08-08T07:50:32;1006.28;;;24.15;43.64
54144;BME280;40050;47.324;18.792;2023-08-08T07:52:33;1006.30;;;24.12;43.51
54144;BME280;40050;47.324;18.792;2023-08-08T07:54:34;1006.30;;;24.13;43.49
54144;BME280;40050;47.324;18.792;2023-08-08T07:56:35;1006.33;;;24.19;43.35
54144;BME280;40050;47.324;18.792;2023-08-08T07:58:36;1006.33;;;24.22;42.98
54144;BME280;40050;47.324;18.792;2023-08-08T08:00:37;1006.36;;;24.25;43.16
54144;BME280;40050;47.324;18.792;2023-08-08T08:02:38;1006.38;;;24.29;42.68
54144;BME280;40050;47.324;18.792;2023-08-08T08:04:39;1006.41;;;24.36;42.98
54144;BME280;40050;47.324;18.792;2023-08-08T08:06:40;1006.34;;;24.46;43.05
54144;BME280;40050;47.324;18.792;2023-08-08T08:08:41;1006.37;;;24.58;43.33
54144;BME280;40050;47.324;18.792;2023-08-08T08:10:42;1006.34;;;24.72;42.70
54144;BME280;40050;47.324;18.792;2023-08-08T08:12:43;1006.35;;;24.85;40.64
54144;BME280;40050;47.324;18.792;2023-08-08T08:14:44;1006.33;;;24.91;41.98
54144;BME280;40050;47.324;18.792;2023-08-08T08:16:45;1006.27;;;25.05;42.20
54144;BME280;40050;47.324;18.792;2023-08-08T08:18:46;1006.28;;;25.20;41.60
54144;BME280;40050;47.324;18.792;2023-08-08T08:20:47;1006.26;;;25.30;40.77
54144;BME280;40050;47.324;18.792;2023-08-08T08:22:48;1006.26;;;25.39;41.45
54144;BME280;40050;47.324;18.792;2023-08-08T08:24:49;1006.21;;;25.44;41.20
54144;BME280;40050;47.324;18.792;2023-08-08T08:26:50;1006.27;;;25.55;40.91
54144;BME280;40050;47.324;18.792;2023-08-08T08:28:51;1006.29;;;25.64;40.01
54144;BME280;40050;47.324;18.792;2023-08-08T08:30:52;1006.27;;;25.71;40.09
54144;BME280;40050;47.324;18.792;2023-08-08T08:32:52;1006.32;;;25.69;39.82
54144;BME280;40050;47.324;18.792;2023-08-08T08:34:53;1006.38;;;25.81;39.24
54144;BME280;40050;47.324;18.792;2023-08-08T08:36:54;1006.38;;;25.80;39.32
54144;BME280;40050;47.324;18.792;2023-08-08T08:38:55;1006.36;;;25.83;38.93
54144;BME280;40050;47.324;18.792;2023-08-08T08:40:56;1006.37;;;25.90;38.94
54144;BME280;40050;47.324;18.792;2023-08-08T08:42:57;1006.35;;;26.00;38.64
54144;BME280;40050;47.324;18.792;2023-08-08T08:44:58;1006.35;;;26.09;38.45
54144;BME280;40050;47.324;18.792;2023-08-08T08:47:02;1006.31;;;26.26;38.57
54144;BME280;40050;47.324;18.792;2023-08-08T08:49:04;1006.23;;;26.30;37.13
54144;BME280;40050;47.324;18.792;2023-08-08T08:51:06;1006.34;;;26.35;36.90
54144;BME280;40050;47.324;18.792;2023-08-08T08:53:07;1006.31;;;26.44;37.37
54144;BME280;40050;47.324;18.792;2023-08-08T08:55:08;1006.31;;;26.51;37.33
54144;BME280;40050;47.324;18.792;2023-08-08T08:57:09;1006.28;;;26.53;36.91
54144;BME280;40050;47.324;18.792;2023-08-08T08:59:10;1006.32;;;26.56;36.31
54144;BME280;40050;47.324;18.792;2023-08-08T09:01:11;1006.33;;;26.52;36.38
54144;BME280;40050;47.324;18.792;2023-08-08T09:03:12;1006.37;;;26.56;37.28
54144;BME280;40050;47.324;18.792;2023-08-08T09:05:13;1006.41;;;26.67;37.15
54144;BME280;40050;47.324;18.792;2023-08-08T09:07:16;1006.39;;;26.74;37.36
54144;BME280;40050;47.324;18.792;2023-08-08T09:09:19;1006.45;;;26.80;36.54
54144;BME280;40050;47.324;18.792;2023-08-08T09:11:20;1006.37;;;26.86;36.87
54144;BME280;40050;47.324;18.792;2023-08-08T09:13:21;1006.37;;;26.94;36.40
54144;BME280;40050;47.324;18.792;2023-08-08T09:15:22;1006.45;;;27.02;36.68
54144;BME280;40050;47.324;18.792;2023-08-08T09:17:26;1006.41;;;27.08;37.24
54144;BME280;40050;47.324;18.792;2023-08-08T09:19:27;1006.43;;;27.18;36.51
54144;BME280;40050;47.324;18.792;2023-08-08T09:21:28;1006.42;;;27.33;36.99
54144;BME280;40050;47.324;18.792;2023-08-08T09:23:29;1006.36;;;27.43;36.40
54144;BME280;40050;47.324;18.792;2023-08-08T09:25:30;1006.36;;;27.44;35.91
54144;BME280;40050;47.324;18.792;2023-08-08T09:27:31;1006.38;;;27.46;35.82
54144;BME280;40050;47.324;18.792;2023-08-08T09:29:32;1006.38;;;27.43;36.10
54144;BME280;40050;47.324;18.792;2023-08-08T09:31:34;1006.42;;;27.46;36.59
54144;BME280;40050;47.324;18.792;2023-08-08T09:33:35;1006.39;;;27.37;36.56
54144;BME280;40050;47.324;18.792;2023-08-08T09:35:38;1006.41;;;27.46;36.33
54144;BME280;40050;47.324;18.792;2023-08-08T09:37:39;1006.33;;;27.50;35.92
54144;BME280;40050;47.324;18.792;2023-08-08T09:39:40;1006.38;;;27.61;36.17
54144;BME280;40050;47.324;18.792;2023-08-08T09:41:41;1006.30;;;27.67;36.73
54144;BME280;40050;47.324;18.792;2023-08-08T09:43:45;1006.29;;;27.70;35.69
54144;BME280;40050;47.324;18.792;2023-08-08T09:45:47;1006.32;;;27.70;37.00
54144;BME280;40050;47.324;18.792;2023-08-08T09:47:49;1006.28;;;27.79;36.50
54144;BME280;40050;47.324;18.792;2023-08-08T09:49:50;1006.21;;;27.84;36.27
54144;BME280;40050;47.324;18.792;2023-08-08T09:51:51;1006.28;;;27.84;36.89
54144;BME280;40050;47.324;18.792;2023-08-08T09:53:52;1006.33;;;27.86;36.58
54144;BME280;40050;47.324;18.792;2023-08-08T09:55:56;1006.40;;;27.88;36.83
54144;BME280;40050;47.324;18.792;2023-08-08T09:57:57;1006.36;;;27.93;34.77
54144;BME280;40050;47.324;18.792;2023-08-08T09:59:58;1006.37;;;27.87;35.40
54144;BME280;40050;47.324;18.792;2023-08-08T10:01:59;1006.35;;;27.86;35.83
54144;BME280;40050;47.324;18.792;2023-08-08T10:04:01;1006.36;;;27.80;35.49
54144;BME280;40050;47.324;18.792;2023-08-08T10:06:03;1006.36;;;27.75;36.86
54144;BME280;40050;47.324;18.792;2023-08-08T10:08:04;1006.35;;;27.70;35.70
54144;BME280;40050;47.324;18.792;2023-08-08T10:10:06;1006.36;;;27.62;35.88
54144;BME280;40050;47.324;18.792;2023-08-08T10:12:07;1006.33;;;27.51;35.90
54144;BME280;40050;47.324;18.792;2023-08-08T10:14:09;1006.31;;;27.39;35.82
54144;BME280;40050;47.324;18.792;2023-08-08T10:16:10;1006.36;;;27.36;36.48
54144;BME280;40050;47.324;18.792;2023-08-08T10:18:12;1006.28;;;27.23;35.16
54144;BME280;40050;47.324;18.792;2023-08-08T10:20:13;1006.29;;;27.08;36.26
54144;BME280;40050;47.324;18.792;2023-08-08T10:22:14;1006.29;;;27.08;36.71
54144;BME280;40050;47.324;18.792;2023-08-08T10:24:19;1006.31;;;27.14;36.86
54144;BME280;40050;47.324;18.792;2023-08-08T10:26:20;1006.28;;;27.08;35.81
54144;BME280;40050;47.324;18.792;2023-08-08T10:28:21;1006.26;;;27.06;36.65
54144;BME280;40050;47.324;18.792;2023-08-08T10:30:22;1006.16;;;27.04;36.83
54144;BME280;40050;47.324;18.792;2023-08-08T10:32:26;1006.15;;;27.05;36.65
54144;BME280;40050;47.324;18.792;2023-08-08T10:34:39;1006.16;;;26.99;36.65
54144;BME280;40050;47.324;18.792;2023-08-08T10:36:44;1006.19;;;26.91;36.54
54144;BME280;40050;47.324;18.792;2023-08-08T10:38:46;1006.18;;;26.89;37.05
54144;BME280;40050;47.324;18.792;2023-08-08T10:40:47;1006.13;;;26.91;36.78
54144;BME280;40050;47.324;18.792;2023-08-08T10:42:48;1006.17;;;26.95;36.33